sensor_id;sensor_type;location;lat;lon;timestamp;P1;durP1;ratioP1;P2;durP2;ratioP2
13457;SDS011;6801;53.018;11.560;2023-08-21T00:01:39;3.85;;;2.20;;
13457;SDS011;6801;53.018;11.560;2023-08-21T00:04:07;3.00;;;1.73;;
13457;SDS011;6801;53.018;11.560;2023-08-21T00:06:34;4.57;;;2.55;;
13457;SDS011;6801;53.018;11.560;2023-08-21T00:09:01;5.63;;;2.42;;
13457;SDS011;6801;53.018;11.560;2023-08-21T00:11:29;2.83;;;1.75;;
13457;SDS011;6801;53.018;11.560;2023-08-21T00:13:56;3.55;;;1.40;;
13457;SDS011;6801;53.018;11.560;2023-08-21T00:16:23;2.53;;;1.63;;
13457;SDS011;6801;53.018;11.560;2023-08-21T00:18:52;4.22;;;2.35;;
13457;SDS011;6801;53.018;11.560;2023-08-21T00:21:19;5.45;;;1.60;;
13457;SDS011;6801;53.018;11.560;2023-08-21T00:23:46;3.28;;;2.05;;
13457;SDS011;6801;53.018;11.560;2023-08-21T00:26:13;5.53;;;1.90;;
13457;SDS011;6801;53.018;11.560;2023-08-21T00:28:41;2.95;;;1.50;;
13457;SDS011;6801;53.018;11.560;2023-08-21T00:31:09;3.15;;;1.92;;
13457;SDS011;6801;53.018;11.560;2023-08-21T00:33:36;7.75;;;2.70;;
13457;SDS011;6801;53.018;11.560;2023-08-21T00:36:03;4.80;;;2.20;;
13457;SDS011;6801;53.018;11.560;2023-08-21T00:38:31;7.55;;;3.45;;
13457;SDS011;6801;53.018;11.560;2023-08-21T00:40:58;2.90;;;1.80;;
13457;SDS011;6801;53.018;11.560;2023-08-21T00:43:25;4.50;;;2.10;;
13457;SDS011;6801;53.018;11.560;2023-08-21T00:45:53;4.45;;;1.70;;
13457;SDS011;6801;53.018;11.560;2023-08-21T00:48:20;3.72;;;1.85;;
13457;SDS011;6801;53.018;11.560;2023-08-21T00:50:48;4.45;;;1.80;;
13457;SDS011;6801;53.018;11.560;2023-08-21T00:53:15;4.13;;;1.88;;
13457;SDS011;6801;53.018;11.560;2023-08-21T00:55:43;2.40;;;1.80;;
13457;SDS011;6801;53.018;11.560;2023-08-21T00:58:10;3.75;;;2.10;;
13457;SDS011;6801;53.018;11.560;2023-08-21T01:00:39;2.20;;;1.80;;
13457;SDS011;6801;53.018;11.560;2023-08-21T01:03:11;4.72;;;2.42;;
13457;SDS011;6801;53.018;11.560;2023-08-21T01:05:38;5.18;;;2.80;;
13457;SDS011;6801;53.018;11.560;2023-08-21T01:08:06;3.33;;;1.92;;
13457;SDS011;6801;53.018;11.560;2023-08-21T01:10:42;4.85;;;2.40;;
13457;SDS011;6801;53.018;11.560;2023-08-21T01:13:18;3.95;;;2.10;;
13457;SDS011;6801;53.018;11.560;2023-08-21T01:15:50;4.38;;;2.55;;
13457;SDS011;6801;53.018;11.560;2023-08-21T01:20:49;3.60;;;1.98;;
13457;SDS011;6801;53.018;11.560;2023-08-21T01:23:31;4.10;;;1.85;;
13457;SDS011;6801;53.018;11.560;2023-08-21T01:25:59;5.13;;;1.52;;
13457;SDS011;6801;53.018;11.560;2023-08-21T01:28:26;3.15;;;1.60;;
13457;SDS011;6801;53.018;11.560;2023-08-21T01:30:55;3.55;;;2.13;;
13457;SDS011;6801;53.018;11.560;2023-08-21T01:33:25;3.42;;;2.00;;
13457;SDS011;6801;53.018;11.560;2023-08-21T01:38:23;6.10;;;2.80;;
13457;SDS011;6801;53.018;11.560;2023-08-21T01:40:53;3.33;;;1.88;;
13457;SDS011;6801;53.018;11.560;2023-08-21T01:43:20;5.55;;;2.50;;
13457;SDS011;6801;53.018;11.560;2023-08-21T01:45:47;4.82;;;3.17;;
13457;SDS011;6801;53.018;11.560;2023-08-21T01:48:14;5.93;;;2.67;;
13457;SDS011;6801;53.018;11.560;2023-08-21T01:50:41;3.88;;;2.20;;
13457;SDS011;6801;53.018;11.560;2023-08-21T01:53:08;6.03;;;2.85;;
13457;SDS011;6801;53.018;11.560;2023-08-21T01:55:35;3.58;;;1.80;;
13457;SDS011;6801;53.018;11.560;2023-08-21T01:58:03;6.22;;;2.38;;
13457;SDS011;6801;53.018;11.560;2023-08-21T02:00:30;3.90;;;2.40;;
13457;SDS011;6801;53.018;11.560;2023-08-21T02:02:57;4.45;;;2.00;;
13457;SDS011;6801;53.018;11.560;2023-08-21T02:05:24;3.22;;;2.20;;
13457;SDS011;6801;53.018;11.560;2023-08-21T02:07:51;3.15;;;2.33;;
13457;SDS011;6801;53.018;11.560;2023-08-21T02:10:18;4.20;;;2.38;;
13457;SDS011;6801;53.018;11.560;2023-08-21T02:12:45;3.78;;;1.67;;
13457;SDS011;6801;53.018;11.560;2023-08-21T02:15:14;3.67;;;1.98;;
13457;SDS011;6801;53.018;11.560;2023-08-21T02:17:41;3.10;;;1.80;;
13457;SDS011;6801;53.018;11.560;2023-08-21T02:20:09;5.53;;;2.90;;
13457;SDS011;6801;53.018;11.560;2023-08-21T02:22:37;4.78;;;2.08;;
13457;SDS011;6801;53.018;11.560;2023-08-21T02:25:04;3.63;;;2.10;;
13457;SDS011;6801;53.018;11.560;2023-08-21T02:27:31;6.13;;;2.40;;
13457;SDS011;6801;53.018;11.560;2023-08-21T02:29:58;4.07;;;2.00;;
13457;SDS011;6801;53.018;11.560;2023-08-21T02:32:27;6.47;;;2.70;;
13457;SDS011;6801;53.018;11.560;2023-08-21T02:34:54;8.85;;;3.10;;
13457;SDS011;6801;53.018;11.560;2023-08-21T02:37:21;4.28;;;2.53;;
13457;SDS011;6801;53.018;11.560;2023-08-21T02:39:48;5.70;;;2.30;;
13457;SDS011;6801;53.018;11.560;2023-08-21T02:42:15;4.15;;;2.95;;
13457;SDS011;6801;53.018;11.560;2023-08-21T02:44:42;9.55;;;2.67;;
13457;SDS011;6801;53.018;11.560;2023-08-21T02:47:09;9.23;;;3.50;;
13457;SDS011;6801;53.018;11.560;2023-08-21T02:49:37;9.50;;;3.33;;
13457;SDS011;6801;53.018;11.560;2023-08-21T02:52:04;6.43;;;3.80;;
13457;SDS011;6801;53.018;11.560;2023-08-21T02:54:31;10.00;;;3.08;;
13457;SDS011;6801;53.018;11.560;2023-08-21T02:56:59;6.53;;;3.28;;
13457;SDS011;6801;53.018;11.560;2023-08-21T02:59:25;5.25;;;3.28;;
13457;SDS011;6801;53.018;11.560;2023-08-21T03:01:53;3.47;;;2.40;;
13457;SDS011;6801;53.018;11.560;2023-08-21T03:04:20;5.90;;;3.17;;
13457;SDS011;6801;53.018;11.560;2023-08-21T03:06:51;2.90;;;2.00;;
13457;SDS011;6801;53.018;11.560;2023-08-21T03:09:18;6.20;;;2.80;;
13457;SDS011;6801;53.018;11.560;2023-08-21T03:11:44;2.28;;;1.95;;
13457;SDS011;6801;53.018;11.560;2023-08-21T03:14:11;3.53;;;2.40;;
13457;SDS011;6801;53.018;11.560;2023-08-21T03:16:38;4.15;;;2.33;;
13457;SDS011;6801;53.018;11.560;2023-08-21T03:19:05;3.55;;;2.00;;
13457;SDS011;6801;53.018;11.560;2023-08-21T03:21:33;3.75;;;1.80;;
13457;SDS011;6801;53.018;11.560;2023-08-21T03:24:02;3.33;;;1.73;;
13457;SDS011;6801;53.018;11.560;2023-08-21T03:26:29;2.38;;;1.77;;
13457;SDS011;6801;53.018;11.560;2023-08-21T03:28:56;2.10;;;1.50;;
13457;SDS011;6801;53.018;11.560;2023-08-21T03:31:23;3.30;;;1.70;;
13457;SDS011;6801;53.018;11.560;2023-08-21T03:33:50;3.63;;;1.85;;
13457;SDS011;6801;53.018;11.560;2023-08-21T03:36:20;3.38;;;1.73;;
13457;SDS011;6801;53.018;11.560;2023-08-21T03:38:49;3.80;;;1.63;;
13457;SDS011;6801;53.018;11.560;2023-08-21T03:41:17;2.83;;;1.60;;
13457;SDS011;6801;53.018;11.560;2023-08-21T03:43:44;2.45;;;1.40;;
13457;SDS011;6801;53.018;11.560;2023-08-21T03:46:11;3.13;;;1.77;;
13457;SDS011;6801;53.018;11.560;2023-08-21T03:48:38;5.28;;;1.90;;
13457;SDS011;6801;53.018;11.560;2023-08-21T03:51:05;2.28;;;1.55;;
13457;SDS011;6801;53.018;11.560;2023-08-21T03:53:32;1.90;;;1.55;;
13457;SDS011;6801;53.018;11.560;2023-08-21T03:55:59;2.33;;;1.20;;
13457;SDS011;6801;53.018;11.560;2023-08-21T03:58:27;1.98;;;1.02;;
13457;SDS011;6801;53.018;11.560;2023-08-21T04:03:23;3.10;;;1.40;;
13457;SDS011;6801;53.018;11.560;2023-08-21T04:05:52;1.70;;;1.23;;
13457;SDS011;6801;53.018;11.560;2023-08-21T04:08:19;2.90;;;1.23;;
13457;SDS011;6801;53.018;11.560;2023-08-21T04:10:47;2.70;;;1.40;;
13457;SDS011;6801;53.018;11.560;2023-08-21T04:13:14;3.33;;;1.50;;
13457;SDS011;6801;53.018;11.560;2023-08-21T04:15:45;2.85;;;1.63;;
13457;SDS011;6801;53.018;11.560;2023-08-21T04:18:16;1.58;;;0.98;;
13457;SDS011;6801;53.018;11.560;2023-08-21T04:20:43;1.67;;;1.08;;
13457;SDS011;6801;53.018;11.560;2023-08-21T04:23:10;1.88;;;1.17;;
13457;SDS011;6801;53.018;11.560;2023-08-21T04:25:37;2.35;;;1.60;;
13457;SDS011;6801;53.018;11.560;2023-08-21T04:28:04;2.22;;;2.03;;
13457;SDS011;6801;53.018;11.560;2023-08-21T04:30:32;3.38;;;2.40;;
13457;SDS011;6801;53.018;11.560;2023-08-21T04:33:01;3.00;;;2.10;;
13457;SDS011;6801;53.018;11.560;2023-08-21T04:35:28;2.78;;;1.75;;
13457;SDS011;6801;53.018;11.560;2023-08-21T04:37:55;4.10;;;2.28;;
13457;SDS011;6801;53.018;11.560;2023-08-21T04:40:23;4.85;;;2.83;;
13457;SDS011;6801;53.018;11.560;2023-08-21T04:42:51;4.22;;;2.33;;
13457;SDS011;6801;53.018;11.560;2023-08-21T04:45:20;5.25;;;1.95;;
13457;SDS011;6801;53.018;11.560;2023-08-21T04:47:47;3.75;;;2.15;;
13457;SDS011;6801;53.018;11.560;2023-08-21T04:50:15;4.32;;;2.85;;
13457;SDS011;6801;53.018;11.560;2023-08-21T04:52:42;2.88;;;1.70;;
13457;SDS011;6801;53.018;11.560;2023-08-21T04:55:09;5.32;;;1.88;;
13457;SDS011;6801;53.018;11.560;2023-08-21T04:57:37;2.50;;;1.63;;
13457;SDS011;6801;53.018;11.560;2023-08-21T05:00:07;4.73;;;2.13;;
13457;SDS011;6801;53.018;11.560;2023-08-21T05:02:38;5.05;;;1.77;;
13457;SDS011;6801;53.018;11.560;2023-08-21T05:05:06;3.08;;;1.50;;
13457;SDS011;6801;53.018;11.560;2023-08-21T05:07:35;3.55;;;1.40;;
13457;SDS011;6801;53.018;11.560;2023-08-21T05:10:02;6.18;;;2.47;;
13457;SDS011;6801;53.018;11.560;2023-08-21T05:12:33;2.50;;;1.67;;
13457;SDS011;6801;53.018;11.560;2023-08-21T05:15:00;2.83;;;1.33;;
13457;SDS011;6801;53.018;11.560;2023-08-21T05:17:28;4.90;;;2.03;;
13457;SDS011;6801;53.018;11.560;2023-08-21T05:19:56;5.20;;;1.98;;
13457;SDS011;6801;53.018;11.560;2023-08-21T05:22:23;4.45;;;2.03;;
13457;SDS011;6801;53.018;11.560;2023-08-21T05:24:53;4.10;;;1.38;;
13457;SDS011;6801;53.018;11.560;2023-08-21T05:27:20;4.70;;;1.98;;
13457;SDS011;6801;53.018;11.560;2023-08-21T05:29:47;3.22;;;1.77;;
13457;SDS011;6801;53.018;11.560;2023-08-21T05:32:16;4.70;;;2.15;;
13457;SDS011;6801;53.018;11.560;2023-08-21T05:34:44;6.47;;;2.78;;
13457;SDS011;6801;53.018;11.560;2023-08-21T05:37:11;3.30;;;1.63;;
13457;SDS011;6801;53.018;11.560;2023-08-21T05:39:39;4.20;;;2.13;;
13457;SDS011;6801;53.018;11.560;2023-08-21T05:42:07;5.40;;;2.05;;
13457;SDS011;6801;53.018;11.560;2023-08-21T05:44:35;2.35;;;1.77;;
13457;SDS011;6801;53.018;11.560;2023-08-21T05:47:02;7.35;;;3.20;;
13457;SDS011;6801;53.018;11.560;2023-08-21T05:49:29;4.45;;;2.15;;
13457;SDS011;6801;53.018;11.560;2023-08-21T05:51:57;6.80;;;2.10;;
13457;SDS011;6801;53.018;11.560;2023-08-21T05:54:24;5.13;;;2.70;;
13457;SDS011;6801;53.018;11.560;2023-08-21T05:56:52;2.90;;;1.77;;
13457;SDS011;6801;53.018;11.560;2023-08-21T05:59:27;5.93;;;3.00;;
13457;SDS011;6801;53.018;11.560;2023-08-21T06:01:57;6.47;;;3.00;;
13457;SDS011;6801;53.018;11.560;2023-08-21T06:04:25;9.52;;;2.97;;
13457;SDS011;6801;53.018;11.560;2023-08-21T06:07:01;4.13;;;2.35;;
13457;SDS011;6801;53.018;11.560;2023-08-21T06:09:28;7.80;;;2.60;;
13457;SDS011;6801;53.018;11.560;2023-08-21T06:11:57;5.35;;;1.70;;
13457;SDS011;6801;53.018;11.560;2023-08-21T06:14:24;3.65;;;1.70;;
13457;SDS011;6801;53.018;11.560;2023-08-21T06:16:57;11.98;;;2.08;;
13457;SDS011;6801;53.018;11.560;2023-08-21T06:19:25;4.80;;;2.08;;
13457;SDS011;6801;53.018;11.560;2023-08-21T06:21:52;4.10;;;2.10;;
13457;SDS011;6801;53.018;11.560;2023-08-21T06:24:20;4.97;;;1.95;;
13457;SDS011;6801;53.018;11.560;2023-08-21T06:26:52;8.20;;;2.13;;
13457;SDS011;6801;53.018;11.560;2023-08-21T06:29:19;3.22;;;1.75;;
13457;SDS011;6801;53.018;11.560;2023-08-21T06:31:48;5.13;;;1.73;;
13457;SDS011;6801;53.018;11.560;2023-08-21T06:34:15;4.72;;;1.50;;
13457;SDS011;6801;53.018;11.560;2023-08-21T06:36:43;5.90;;;1.42;;
13457;SDS011;6801;53.018;11.560;2023-08-21T06:39:10;4.40;;;1.58;;
13457;SDS011;6801;53.018;11.560;2023-08-21T06:41:37;6.65;;;1.90;;
13457;SDS011;6801;53.018;11.560;2023-08-21T06:44:04;7.07;;;1.52;;
13457;SDS011;6801;53.018;11.560;2023-08-21T06:46:31;5.75;;;1.90;;
13457;SDS011;6801;53.018;11.560;2023-08-21T06:48:59;5.75;;;1.58;;
13457;SDS011;6801;53.018;11.560;2023-08-21T06:51:26;4.85;;;1.65;;
13457;SDS011;6801;53.018;11.560;2023-08-21T06:53:53;6.90;;;1.88;;
13457;SDS011;6801;53.018;11.560;2023-08-21T06:56:20;5.88;;;1.70;;
13457;SDS011;6801;53.018;11.560;2023-08-21T06:58:47;7.32;;;1.75;;
13457;SDS011;6801;53.018;11.560;2023-08-21T07:01:14;4.43;;;1.25;;
13457;SDS011;6801;53.018;11.560;2023-08-21T07:03:41;3.25;;;1.50;;
13457;SDS011;6801;53.018;11.560;2023-08-21T07:06:10;9.90;;;1.63;;
13457;SDS011;6801;53.018;11.560;2023-08-21T07:08:37;4.05;;;1.45;;
13457;SDS011;6801;53.018;11.560;2023-08-21T07:11:05;6.47;;;1.23;;
13457;SDS011;6801;53.018;11.560;2023-08-21T07:13:35;7.95;;;1.58;;
13457;SDS011;6801;53.018;11.560;2023-08-21T07:16:02;3.63;;;1.45;;
13457;SDS011;6801;53.018;11.560;2023-08-21T07:18:31;5.20;;;1.17;;
13457;SDS011;6801;53.018;11.560;2023-08-21T07:20:59;5.43;;;1.23;;
13457;SDS011;6801;53.018;11.560;2023-08-21T07:23:28;3.25;;;1.35;;
13457;SDS011;6801;53.018;11.560;2023-08-21T07:25:55;3.78;;;1.20;;
13457;SDS011;6801;53.018;11.560;2023-08-21T07:28:23;5.25;;;1.38;;
13457;SDS011;6801;53.018;11.560;2023-08-21T07:30:54;2.60;;;1.10;;
13457;SDS011;6801;53.018;11.560;2023-08-21T07:33:21;8.43;;;1.35;;
13457;SDS011;6801;53.018;11.560;2023-08-21T07:35:56;10.57;;;1.20;;
13457;SDS011;6801;53.018;11.560;2023-08-21T07:38:24;9.00;;;1.40;;
13457;SDS011;6801;53.018;11.560;2023-08-21T07:41:01;5.43;;;1.13;;
13457;SDS011;6801;53.018;11.560;2023-08-21T07:43:30;4.25;;;1.40;;
13457;SDS011;6801;53.018;11.560;2023-08-21T07:45:57;2.47;;;1.00;;
13457;SDS011;6801;53.018;11.560;2023-08-21T07:48:24;3.28;;;1.10;;
13457;SDS011;6801;53.018;11.560;2023-08-21T07:50:51;8.82;;;1.30;;
13457;SDS011;6801;53.018;11.560;2023-08-21T07:53:19;4.13;;;1.13;;
13457;SDS011;6801;53.018;11.560;2023-08-21T07:55:46;3.38;;;0.75;;
13457;SDS011;6801;53.018;11.560;2023-08-21T07:58:14;5.45;;;1.20;;
13457;SDS011;6801;53.018;11.560;2023-08-21T08:00:41;3.97;;;0.98;;
13457;SDS011;6801;53.018;11.560;2023-08-21T08:03:08;3.88;;;0.90;;
13457;SDS011;6801;53.018;11.560;2023-08-21T08:05:37;6.63;;;1.00;;
13457;SDS011;6801;53.018;11.560;2023-08-21T08:08:04;3.25;;;1.05;;
13457;SDS011;6801;53.018;11.560;2023-08-21T08:10:31;3.47;;;0.90;;
13457;SDS011;6801;53.018;11.560;2023-08-21T08:12:58;8.60;;;1.52;;
13457;SDS011;6801;53.018;11.560;2023-08-21T08:15:26;5.28;;;1.10;;
13457;SDS011;6801;53.018;11.560;2023-08-21T08:17:54;4.75;;;1.10;;
13457;SDS011;6801;53.018;11.560;2023-08-21T08:20:21;6.85;;;1.30;;
13457;SDS011;6801;53.018;11.560;2023-08-21T08:22:48;3.00;;;0.90;;
13457;SDS011;6801;53.018;11.560;2023-08-21T08:25:15;5.25;;;1.42;;
13457;SDS011;6801;53.018;11.560;2023-08-21T08:27:42;3.60;;;1.23;;
13457;SDS011;6801;53.018;11.560;2023-08-21T08:30:10;4.03;;;0.95;;
13457;SDS011;6801;53.018;11.560;2023-08-21T08:32:39;5.10;;;1.17;;
13457;SDS011;6801;53.018;11.560;2023-08-21T08:35:10;4.38;;;0.90;;
13457;SDS011;6801;53.018;11.560;2023-08-21T08:37:37;5.47;;;0.77;;
13457;SDS011;6801;53.018;11.560;2023-08-21T08:40:05;4.90;;;1.05;;
13457;SDS011;6801;53.018;11.560;2023-08-21T08:42:33;4.05;;;0.90;;
13457;SDS011;6801;53.018;11.560;2023-08-21T08:45:02;3.85;;;0.95;;
13457;SDS011;6801;53.018;11.560;2023-08-21T08:47:30;3.20;;;0.65;;
13457;SDS011;6801;53.018;11.560;2023-08-21T08:50:00;5.88;;;1.55;;
13457;SDS011;6801;53.018;11.560;2023-08-21T08:52:30;6.72;;;0.93;;
13457;SDS011;6801;53.018;11.560;2023-08-21T08:55:00;8.48;;;1.27;;
13457;SDS011;6801;53.018;11.560;2023-08-21T08:57:28;4.65;;;1.00;;
13457;SDS011;6801;53.018;11.560;2023-08-21T08:59:55;3.65;;;1.10;;
13457;SDS011;6801;53.018;11.560;2023-08-21T09:02:23;4.05;;;0.90;;
13457;SDS011;6801;53.018;11.560;2023-08-21T09:04:52;5.38;;;1.10;;
13457;SDS011;6801;53.018;11.560;2023-08-21T09:07:20;5.03;;;1.33;;
13457;SDS011;6801;53.018;11.560;2023-08-21T09:09:48;8.27;;;1.40;;
13457;SDS011;6801;53.018;11.560;2023-08-21T09:12:17;7.60;;;1.20;;
13457;SDS011;6801;53.018;11.560;2023-08-21T09:14:45;5.05;;;1.15;;
13457;SDS011;6801;53.018;11.560;2023-08-21T09:17:13;3.80;;;0.90;;
13457;SDS011;6801;53.018;11.560;2023-08-21T09:19:41;7.65;;;1.23;;
13457;SDS011;6801;53.018;11.560;2023-08-21T09:22:09;3.63;;;0.80;;
13457;SDS011;6801;53.018;11.560;2023-08-21T09:24:39;3.28;;;0.85;;
13457;SDS011;6801;53.018;11.560;2023-08-21T09:27:12;2.50;;;0.73;;
13457;SDS011;6801;53.018;11.560;2023-08-21T09:29:41;3.58;;;0.88;;
13457;SDS011;6801;53.018;11.560;2023-08-21T09:32:08;3.83;;;1.25;;
13457;SDS011;6801;53.018;11.560;2023-08-21T09:34:36;8.77;;;1.02;;
13457;SDS011;6801;53.018;11.560;2023-08-21T09:37:07;3.20;;;0.60;;
13457;SDS011;6801;53.018;11.560;2023-08-21T09:39:36;3.65;;;0.50;;
13457;SDS011;6801;53.018;11.560;2023-08-21T09:42:07;4.78;;;0.57;;
13457;SDS011;6801;53.018;11.560;2023-08-21T09:44:36;4.82;;;0.77;;
13457;SDS011;6801;53.018;11.560;2023-08-21T09:47:04;5.43;;;1.00;;
13457;SDS011;6801;53.018;11.560;2023-08-21T09:49:34;2.20;;;0.47;;
13457;SDS011;6801;53.018;11.560;2023-08-21T09:52:03;3.60;;;0.88;;
13457;SDS011;6801;53.018;11.560;2023-08-21T09:54:31;4.25;;;0.82;;
13457;SDS011;6801;53.018;11.560;2023-08-21T09:57:00;4.18;;;0.85;;
13457;SDS011;6801;53.018;11.560;2023-08-21T09:59:30;2.78;;;0.57;;
13457;SDS011;6801;53.018;11.560;2023-08-21T10:01:58;4.20;;;0.80;;
13457;SDS011;6801;53.018;11.560;2023-08-21T10:04:27;3.83;;;0.90;;
13457;SDS011;6801;53.018;11.560;2023-08-21T10:06:56;3.13;;;0.82;;
13457;SDS011;6801;53.018;11.560;2023-08-21T10:09:24;2.88;;;0.70;;
13457;SDS011;6801;53.018;11.560;2023-08-21T10:11:53;4.47;;;0.68;;
13457;SDS011;6801;53.018;11.560;2023-08-21T10:14:21;5.00;;;0.60;;
13457;SDS011;6801;53.018;11.560;2023-08-21T10:16:51;2.30;;;0.67;;
13457;SDS011;6801;53.018;11.560;2023-08-21T10:21:46;1.25;;;0.40;;
13457;SDS011;6801;53.018;11.560;2023-08-21T10:24:25;2.25;;;0.40;;
13457;SDS011;6801;53.018;11.560;2023-08-21T10:26:59;2.05;;;0.50;;
13457;SDS011;6801;53.018;11.560;2023-08-21T10:29:27;3.38;;;0.90;;
13457;SDS011;6801;53.018;11.560;2023-08-21T10:32:00;6.30;;;0.68;;
13457;SDS011;6801;53.018;11.560;2023-08-21T10:34:32;3.13;;;0.57;;
13457;SDS011;6801;53.018;11.560;2023-08-21T10:37:04;5.85;;;0.80;;
13457;SDS011;6801;53.018;11.560;2023-08-21T10:39:32;2.20;;;0.52;;
13457;SDS011;6801;53.018;11.560;2023-08-21T10:42:04;3.67;;;0.60;;
13457;SDS011;6801;53.018;11.560;2023-08-21T10:44:36;3.88;;;0.60;;
13457;SDS011;6801;53.018;11.560;2023-08-21T10:47:16;2.17;;;0.50;;
13457;SDS011;6801;53.018;11.560;2023-08-21T10:49:45;5.25;;;0.73;;
13457;SDS011;6801;53.018;11.560;2023-08-21T10:52:13;2.75;;;0.75;;
13457;SDS011;6801;53.018;11.560;2023-08-21T10:54:47;3.80;;;0.50;;
13457;SDS011;6801;53.018;11.560;2023-08-21T10:57:15;3.00;;;0.68;;
13457;SDS011;6801;53.018;11.560;2023-08-21T10:59:55;4.35;;;0.82;;
13457;SDS011;6801;53.018;11.560;2023-08-21T11:02:25;3.63;;;0.77;;
13457;SDS011;6801;53.018;11.560;2023-08-21T11:04:54;2.70;;;0.73;;
13457;SDS011;6801;53.018;11.560;2023-08-21T11:07:21;4.20;;;0.65;;
13457;SDS011;6801;53.018;11.560;2023-08-21T11:09:49;3.70;;;0.60;;
13457;SDS011;6801;53.018;11.560;2023-08-21T11:12:17;4.15;;;0.85;;
13457;SDS011;6801;53.018;11.560;2023-08-21T11:14:45;2.75;;;0.40;;
13457;SDS011;6801;53.018;11.560;2023-08-21T11:17:12;3.70;;;1.02;;
13457;SDS011;6801;53.018;11.560;2023-08-21T11:19:41;3.55;;;0.80;;
13457;SDS011;6801;53.018;11.560;2023-08-21T11:22:08;3.72;;;0.50;;
13457;SDS011;6801;53.018;11.560;2023-08-21T11:24:44;6.80;;;1.25;;
13457;SDS011;6801;53.018;11.560;2023-08-21T11:27:13;2.92;;;0.60;;
13457;SDS011;6801;53.018;11.560;2023-08-21T11:29:41;4.65;;;0.68;;
13457;SDS011;6801;53.018;11.560;2023-08-21T11:32:10;4.85;;;0.70;;
13457;SDS011;6801;53.018;11.560;2023-08-21T11:34:38;2.03;;;0.50;;
13457;SDS011;6801;53.018;11.560;2023-08-21T11:37:08;2.67;;;0.40;;
13457;SDS011;6801;53.018;11.560;2023-08-21T11:39:40;3.53;;;0.55;;
13457;SDS011;6801;53.018;11.560;2023-08-21T11:42:08;2.65;;;0.70;;
13457;SDS011;6801;53.018;11.560;2023-08-21T11:44:41;3.80;;;1.00;;
13457;SDS011;6801;53.018;11.560;2023-08-21T11:47:10;9.38;;;0.90;;
13457;SDS011;6801;53.018;11.560;2023-08-21T11:49:37;2.72;;;0.70;;
13457;SDS011;6801;53.018;11.560;2023-08-21T11:52:07;4.32;;;0.70;;
13457;SDS011;6801;53.018;11.560;2023-08-21T11:54:35;3.42;;;0.60;;
13457;SDS011;6801;53.018;11.560;2023-08-21T11:57:05;2.85;;;0.98;;
13457;SDS011;6801;53.018;11.560;2023-08-21T11:59:33;4.28;;;0.88;;
13457;SDS011;6801;53.018;11.560;2023-08-21T12:02:01;26.42;;;2.50;;
13457;SDS011;6801;53.018;11.560;2023-08-21T12:04:35;62.33;;;4.10;;
13457;SDS011;6801;53.018;11.560;2023-08-21T12:07:04;5.20;;;0.77;;
13457;SDS011;6801;53.018;11.560;2023-08-21T12:09:31;5.60;;;0.90;;
13457;SDS011;6801;53.018;11.560;2023-08-21T12:11:58;4.40;;;0.70;;
13457;SDS011;6801;53.018;11.560;2023-08-21T12:14:27;3.55;;;0.70;;
13457;SDS011;6801;53.018;11.560;2023-08-21T12:16:54;3.60;;;0.93;;
13457;SDS011;6801;53.018;11.560;2023-08-21T12:19:21;2.55;;;0.63;;
13457;SDS011;6801;53.018;11.560;2023-08-21T12:21:49;1.65;;;0.68;;
13457;SDS011;6801;53.018;11.560;2023-08-21T12:24:18;2.33;;;0.52;;
13457;SDS011;6801;53.018;11.560;2023-08-21T12:26:45;4.43;;;0.90;;
13457;SDS011;6801;53.018;11.560;2023-08-21T12:29:12;4.90;;;0.80;;
13457;SDS011;6801;53.018;11.560;2023-08-21T12:31:39;3.90;;;0.70;;
13457;SDS011;6801;53.018;11.560;2023-08-21T12:34:06;3.00;;;0.80;;
13457;SDS011;6801;53.018;11.560;2023-08-21T12:36:34;1.83;;;0.60;;
13457;SDS011;6801;53.018;11.560;2023-08-21T12:39:02;3.05;;;0.82;;
13457;SDS011;6801;53.018;11.560;2023-08-21T12:41:31;3.70;;;0.68;;
13457;SDS011;6801;53.018;11.560;2023-08-21T12:43:59;2.63;;;0.60;;
13457;SDS011;6801;53.018;11.560;2023-08-21T12:46:26;3.35;;;0.80;;
13457;SDS011;6801;53.018;11.560;2023-08-21T12:48:54;3.92;;;0.65;;
13457;SDS011;6801;53.018;11.560;2023-08-21T12:51:21;3.30;;;0.90;;
13457;SDS011;6801;53.018;11.560;2023-08-21T12:53:48;3.45;;;0.80;;
13457;SDS011;6801;53.018;11.560;2023-08-21T12:56:16;1.52;;;0.60;;
13457;SDS011;6801;53.018;11.560;2023-08-21T12:58:45;2.05;;;0.60;;
13457;SDS011;6801;53.018;11.560;2023-08-21T13:01:12;2.92;;;0.80;;
13457;SDS011;6801;53.018;11.560;2023-08-21T13:03:43;2.45;;;0.88;;
13457;SDS011;6801;53.018;11.560;2023-08-21T13:06:10;2.53;;;0.60;;
13457;SDS011;6801;53.018;11.560;2023-08-21T13:08:37;2.58;;;0.60;;
13457;SDS011;6801;53.018;11.560;2023-08-21T13:11:04;1.38;;;0.40;;
13457;SDS011;6801;53.018;11.560;2023-08-21T13:13:31;1.95;;;0.50;;
13457;SDS011;6801;53.018;11.560;2023-08-21T13:16:00;3.03;;;0.70;;
13457;SDS011;6801;53.018;11.560;2023-08-21T13:18:28;2.75;;;0.60;;
13457;SDS011;6801;53.018;11.560;2023-08-21T13:20:55;2.92;;;0.60;;
13457;SDS011;6801;53.018;11.560;2023-08-21T13:23:22;2.20;;;0.60;;
13457;SDS011;6801;53.018;11.560;2023-08-21T13:25:49;0.85;;;0.40;;
13457;SDS011;6801;53.018;11.560;2023-08-21T13:28:16;3.13;;;0.45;;
13457;SDS011;6801;53.018;11.560;2023-08-21T13:30:43;3.10;;;0.70;;
13457;SDS011;6801;53.018;11.560;2023-08-21T13:33:13;5.18;;;0.80;;
13457;SDS011;6801;53.018;11.560;2023-08-21T13:35:40;4.47;;;0.80;;
13457;SDS011;6801;53.018;11.560;2023-08-21T13:38:07;2.60;;;0.50;;
13457;SDS011;6801;53.018;11.560;2023-08-21T13:40:35;3.50;;;0.77;;
13457;SDS011;6801;53.018;11.560;2023-08-21T13:43:02;3.53;;;0.80;;
13457;SDS011;6801;53.018;11.560;2023-08-21T13:45:29;5.00;;;0.65;;
13457;SDS011;6801;53.018;11.560;2023-08-21T13:47:56;1.80;;;0.47;;
13457;SDS011;6801;53.018;11.560;2023-08-21T13:50:25;3.22;;;0.73;;
13457;SDS011;6801;53.018;11.560;2023-08-21T13:52:51;1.95;;;0.50;;
13457;SDS011;6801;53.018;11.560;2023-08-21T13:55:18;3.80;;;0.70;;
13457;SDS011;6801;53.018;11.560;2023-08-21T13:57:47;3.28;;;0.82;;
13457;SDS011;6801;53.018;11.560;2023-08-21T14:00:14;2.22;;;0.50;;
13457;SDS011;6801;53.018;11.560;2023-08-21T14:02:42;2.55;;;0.80;;
13457;SDS011;6801;53.018;11.560;2023-08-21T14:05:10;1.52;;;0.47;;
13457;SDS011;6801;53.018;11.560;2023-08-21T14:07:39;3.90;;;0.90;;
13457;SDS011;6801;53.018;11.560;2023-08-21T14:10:06;3.28;;;0.80;;
13457;SDS011;6801;53.018;11.560;2023-08-21T14:12:34;2.25;;;0.70;;
13457;SDS011;6801;53.018;11.560;2023-08-21T14:15:01;1.98;;;0.60;;
13457;SDS011;6801;53.018;11.560;2023-08-21T14:17:28;2.63;;;0.80;;
13457;SDS011;6801;53.018;11.560;2023-08-21T14:19:55;4.13;;;0.55;;
13457;SDS011;6801;53.018;11.560;2023-08-21T14:22:22;3.53;;;0.80;;
13457;SDS011;6801;53.018;11.560;2023-08-21T14:24:51;2.25;;;0.60;;
13457;SDS011;6801;53.018;11.560;2023-08-21T14:27:18;4.50;;;0.63;;
13457;SDS011;6801;53.018;11.560;2023-08-21T14:29:45;3.67;;;0.50;;
13457;SDS011;6801;53.018;11.560;2023-08-21T14:32:12;3.03;;;0.55;;
13457;SDS011;6801;53.018;11.560;2023-08-21T14:34:40;2.70;;;0.70;;
13457;SDS011;6801;53.018;11.560;2023-08-21T14:37:07;3.47;;;0.82;;
13457;SDS011;6801;53.018;11.560;2023-08-21T14:39:36;1.60;;;0.60;;
13457;SDS011;6801;53.018;11.560;2023-08-21T14:42:04;4.07;;;0.52;;
13457;SDS011;6801;53.018;11.560;2023-08-21T14:44:31;2.78;;;0.43;;
13457;SDS011;6801;53.018;11.560;2023-08-21T14:46:58;1.92;;;0.50;;
13457;SDS011;6801;53.018;11.560;2023-08-21T14:49:25;2.15;;;0.80;;
13457;SDS011;6801;53.018;11.560;2023-08-21T14:51:53;2.45;;;0.60;;
13457;SDS011;6801;53.018;11.560;2023-08-21T14:54:20;3.50;;;0.50;;
13457;SDS011;6801;53.018;11.560;2023-08-21T14:56:47;1.75;;;0.50;;
13457;SDS011;6801;53.018;11.560;2023-08-21T14:59:16;1.70;;;0.45;;
13457;SDS011;6801;53.018;11.560;2023-08-21T15:01:43;2.22;;;0.70;;
13457;SDS011;6801;53.018;11.560;2023-08-21T15:04:10;2.55;;;0.60;;